Time;durP1;ratioP1;P1;durP2;ratioP2;P2;SDS_P1;SDS_P2;PMS_P1;PMS_P2;Temp;Humidity;BMP_temperature;BMP_pressure;BME280_temperature;BME280_humidity;BME280_pressure;Samples;Min_cycle;Max_cycle;Signal;HPM_P1;HPM_P2
2022/07/12 00:01:06;;;;;;;;;;;;;;;15.63;67.94;97103.78;5076130;28;19973;-70
2022/07/12 00:03:32;;;;;;;;;;;;;;;15.63;67.89;97097.69;5075720;28;20048;-71
2022/07/12 00:05:59;;;;;;;;;;;;;;;15.64;67.72;97099.28;5075144;28;19961;-71
2022/07/12 00:08:25;;;;;;;;;;;;;;;15.65;67.69;97103.56;5076064;28;19960;-71
2022/07/12 00:10:51;;;;;;;;;;;;;;;15.65;67.55;97118.63;5075938;28;19951;-71
2022/07/12 00:13:17;;;;;;;;;;;;;;;15.65;67.89;97113.34;5075872;28;19982;-72
2022/07/12 00:15:43;;;;;;;;;;;;;;;15.63;67.56;97117.00;5075944;28;19960;-71
2022/07/12 00:18:10;;;;;;;;;;;;;;;15.65;67.22;97116.78;5076062;28;19956;-72
2022/07/12 00:20:36;;;;;;;;;;;;;;;15.67;67.51;97112.06;5075980;28;19980;-71
2022/07/12 00:23:02;;;;;;;;;;;;;;;15.68;67.73;97118.13;5075273;28;19950;-71
2022/07/12 00:25:28;;;;;;;;;;;;;;;15.68;67.87;97121.59;5075647;28;20006;-72
2022/07/12 00:27:54;;;;;;;;;;;;;;;15.69;67.72;97115.28;5075860;28;19958;-71
2022/07/12 00:30:20;;;;;;;;;;;;;;;15.68;67.59;97116.28;5075669;28;19993;-72
2022/07/12 00:32:47;;;;;;;;;;;;;;;15.68;67.96;97118.13;5075885;28;19974;-71
2022/07/12 00:35:13;;;;;;;;;;;;;;;15.67;67.77;97120.00;5074085;28;19958;-71
2022/07/12 00:37:39;;;;;;;;;;;;;;;15.65;67.58;97118.63;5075617;28;19954;-71
2022/07/12 00:40:09;;;;;;;;;;;;;;;15.61;68.04;97119.06;5075389;28;20008;-71
2022/07/12 00:42:35;;;;;;;;;;;;;;;15.57;68.24;97117.94;5075827;28;20396;-72
2022/07/12 00:45:02;;;;;;;;;;;;;;;15.54;68.24;97115.75;5075381;28;20338;-71
2022/07/12 00:47:40;;;;;;;;;;;;;;;15.51;68.33;97120.69;5075465;28;20320;-72
2022/07/12 00:50:06;;;;;;;;;;;;;;;15.47;68.46;97120.34;5075396;28;19960;-72
2022/07/12 00:52:32;;;;;;;;;;;;;;;15.43;68.25;97122.69;5075179;28;19959;-71
2022/07/12 00:54:58;;;;;;;;;;;;;;;15.40;68.20;97123.13;5075146;28;20021;-71
2022/07/12 00:57:24;;;;;;;;;;;;;;;15.35;68.97;97123.03;5074902;28;20020;-71
2022/07/12 00:59:50;;;;;;;;;;;;;;;15.30;68.66;97124.75;5075193;28;19960;-71
2022/07/12 01:02:16;;;;;;;;;;;;;;;15.27;69.11;97131.31;5075021;28;19983;-71
2022/07/12 01:04:43;;;;;;;;;;;;;;;15.26;69.87;97131.53;5074828;28;19969;-71
2022/07/12 01:07:09;;;;;;;;;;;;;;;15.22;69.98;97126.72;5075092;28;20405;-72
2022/07/12 01:09:34;;;;;;;;;;;;;;;15.20;69.92;97115.59;5075011;28;20389;-71
2022/07/12 01:12:00;;;;;;;;;;;;;;;15.18;70.68;97124.75;5074707;28;20010;-71
2022/07/12 01:14:27;;;;;;;;;;;;;;;15.17;70.22;97123.94;5074546;28;19973;-71
2022/07/12 01:16:53;;;;;;;;;;;;;;;15.16;70.35;97125.00;5074766;28;19962;-70
2022/07/12 01:19:20;;;;;;;;;;;;;;;15.15;70.50;97128.66;5074637;28;19962;-71
2022/07/12 01:21:46;;;;;;;;;;;;;;;15.15;70.49;97130.50;5074484;28;19969;-71
2022/07/12 01:24:13;;;;;;;;;;;;;;;15.14;70.60;97129.72;5074601;28;19964;-72
2022/07/12 01:26:38;;;;;;;;;;;;;;;15.15;70.76;97135.78;5074707;28;19957;-71
2022/07/12 01:29:06;;;;;;;;;;;;;;;15.14;71.09;97142.09;5074715;28;20023;-71
2022/07/12 01:31:33;;;;;;;;;;;;;;;15.12;70.72;97142.34;5074664;28;19958;-71
2022/07/12 01:33:59;;;;;;;;;;;;;;;15.12;71.13;97147.63;5074459;28;19958;-71
2022/07/12 01:36:25;;;;;;;;;;;;;;;15.10;71.00;97139.13;5074316;28;19972;-71
2022/07/12 01:38:51;;;;;;;;;;;;;;;15.08;71.19;97135.91;5074617;28;20015;-71
2022/07/12 01:41:17;;;;;;;;;;;;;;;15.06;70.92;97132.69;5074039;28;19980;-71
2022/07/12 01:43:43;;;;;;;;;;;;;;;15.04;70.81;97140.03;5074212;28;19964;-71
2022/07/12 01:46:09;;;;;;;;;;;;;;;15.02;70.78;97132.34;5073390;28;20428;-72
2022/07/12 01:48:35;;;;;;;;;;;;;;;15.00;70.91;97131.75;5074174;28;19960;-71
2022/07/12 01:51:01;;;;;;;;;;;;;;;14.96;71.30;97135.88;5074152;28;19962;-71
2022/07/12 01:53:27;;;;;;;;;;;;;;;14.91;70.92;97137.59;5074221;28;20000;-71
2022/07/12 01:55:52;;;;;;;;;;;;;;;14.88;70.98;97136.22;5074278;28;20318;-71
2022/07/12 01:58:19;;;;;;;;;;;;;;;14.87;71.15;97131.19;5073772;28;19961;-71
2022/07/12 02:01:05;;;;;;;;;;;;;;;14.85;71.25;97131.41;5072812;28;20428;-71
2022/07/12 02:03:34;;;;;;;;;;;;;;;14.84;71.30;97131.63;5073787;28;19959;-71
2022/07/12 02:06:00;;;;;;;;;;;;;;;14.82;71.75;97131.84;5074017;28;20322;-72
2022/07/12 02:08:25;;;;;;;;;;;;;;;14.81;71.44;97136.34;5074047;28;20109;-71
2022/07/12 02:10:51;;;;;;;;;;;;;;;14.79;71.21;97141.03;5073697;28;19993;-70
2022/07/12 02:13:17;;;;;;;;;;;;;;;14.75;71.35;97134.59;5073894;28;20068;-70
2022/07/12 02:15:43;;;;;;;;;;;;;;;14.73;71.82;97136.66;5073592;28;20373;-72
2022/07/12 02:18:09;;;;;;;;;;;;;;;14.68;71.85;97133.91;5074231;28;19960;-71
2022/07/12 02:20:35;;;;;;;;;;;;;;;14.66;72.22;97135.16;5073863;28;20008;-71
2022/07/12 02:23:00;;;;;;;;;;;;;;;14.63;71.84;97123.22;5073765;28;19964;-71
2022/07/12 02:25:26;;;;;;;;;;;;;;;14.63;72.02;97125.06;5073741;28;20005;-70
2022/07/12 02:27:52;;;;;;;;;;;;;;;14.63;71.65;97125.06;5073277;28;20015;-71
2022/07/12 02:30:18;;;;;;;;;;;;;;;14.60;72.60;97127.13;5073591;28;19985;-71
2022/07/12 02:32:45;;;;;;;;;;;;;;;14.59;72.31;97122.88;5073482;28;20320;-71
2022/07/12 02:35:11;;;;;;;;;;;;;;;14.58;72.17;97123.09;5073824;28;20362;-71
2022/07/12 02:37:37;;;;;;;;;;;;;;;14.58;72.43;97123.91;5073599;28;20065;-71
2022/07/12 02:42:48;;;;;;;;;;;;;;;14.57;73.00;97126.75;5073753;28;20419;-71
2022/07/12 02:45:14;;;;;;;;;;;;;;;14.57;72.80;97118.84;5073362;28;19955;-70
2022/07/12 02:47:40;;;;;;;;;;;;;;;14.57;73.15;97121.47;5073631;28;20009;-72
2022/07/12 02:50:06;;;;;;;;;;;;;;;14.55;73.18;97119.09;5073688;28;19963;-72
2022/07/12 02:52:33;;;;;;;;;;;;;;;14.54;73.05;97122.72;5073426;28;19960;-72
2022/07/12 02:54:59;;;;;;;;;;;;;;;14.53;73.13;97118.47;5073247;28;20318;-73
2022/07/12 02:57:25;;;;;;;;;;;;;;;14.50;73.41;97121.56;5075385;28;20042;-72
2022/07/12 02:59:51;;;;;;;;;;;;;;;14.51;73.75;97123.19;5077485;28;19998;-72
2022/07/12 03:02:17;;;;;;;;;;;;;;;14.51;73.64;97119.72;5077319;28;20489;-72
2022/07/12 03:04:42;;;;;;;;;;;;;;;14.50;74.67;97121.56;5077323;28;19958;-72
2022/07/12 03:07:08;;;;;;;;;;;;;;;14.49;73.85;97111.22;5076306;28;20435;-72
2022/07/12 03:09:35;;;;;;;;;;;;;;;14.49;74.36;97121.78;5077187;28;20000;-72
2022/07/12 03:12:00;;;;;;;;;;;;;;;14.49;74.43;97121.78;5076401;28;19962;-72
2022/07/12 03:14:26;;;;;;;;;;;;;;;14.48;73.98;97117.53;5076998;28;19965;-72
2022/07/12 03:16:52;;;;;;;;;;;;;;;14.48;74.22;97120.97;5075968;28;20371;-72
2022/07/12 03:19:18;;;;;;;;;;;;;;;14.47;74.63;97127.28;5077040;28;19969;-72
2022/07/12 03:21:44;;;;;;;;;;;;;;;14.47;74.51;97129.09;5077387;28;19970;-72
2022/07/12 03:24:10;;;;;;;;;;;;;;;14.46;74.50;97128.31;5075555;28;19982;-73
2022/07/12 03:26:36;;;;;;;;;;;;;;;14.46;74.61;97130.16;5076781;28;19969;-72
2022/07/12 03:29:02;;;;;;;;;;;;;;;14.45;74.53;97121.44;5076810;28;20035;-72
2022/07/12 03:31:28;;;;;;;;;;;;;;;14.47;74.63;97126.47;5076841;28;20425;-73
2022/07/12 03:33:54;;;;;;;;;;;;;;;14.46;74.61;97130.16;5076851;28;19956;-72
2022/07/12 03:36:20;;;;;;;;;;;;;;;14.47;75.11;97129.09;5076693;28;19959;-72
2022/07/12 03:38:46;;;;;;;;;;;;;;;14.46;75.00;97130.94;5076842;28;20064;-72
2022/07/12 03:41:12;;;;;;;;;;;;;;;14.49;74.96;97143.72;5076775;28;19994;-73
2022/07/12 03:43:38;;;;;;;;;;;;;;;14.50;74.99;97140.03;5076874;28;19960;-72
2022/07/12 03:46:04;;;;;;;;;;;;;;;14.51;75.16;97146.09;5076543;28;20373;-72
2022/07/12 03:48:30;;;;;;;;;;;;;;;14.52;75.17;97142.44;5076628;28;20321;-73
2022/07/12 03:50:56;;;;;;;;;;;;;;;14.53;75.69;97144.88;5076476;28;19952;-73
2022/07/12 03:53:21;;;;;;;;;;;;;;;14.54;75.34;97141.19;5076455;28;20408;-73
2022/07/12 03:55:47;;;;;;;;;;;;;;;14.56;75.62;97143.63;5076202;28;20006;-72
2022/07/12 03:58:13;;;;;;;;;;;;;;;14.57;75.60;97146.06;5076443;28;19966;-72
2022/07/12 04:00:42;;;;;;;;;;;;;;;14.58;75.58;97152.94;5076235;28;19968;-73
2022/07/12 04:03:11;;;;;;;;;;;;;;;14.59;75.61;97148.44;5065730;28;20319;-72
2022/07/12 04:05:37;;;;;;;;;;;;;;;14.60;75.33;97153.50;5074866;28;19961;-72
2022/07/12 04:08:03;;;;;;;;;;;;;;;14.61;75.50;97154.31;5075674;28;19964;-72
2022/07/12 04:10:29;;;;;;;;;;;;;;;14.61;75.42;97156.94;5076176;28;20313;-72
2022/07/12 04:12:55;;;;;;;;;;;;;;;14.62;74.93;97155.94;5075932;28;20012;-72
2022/07/12 04:15:21;;;;;;;;;;;;;;;14.63;74.86;97160.16;5075858;28;19961;-72
2022/07/12 04:17:47;;;;;;;;;;;;;;;14.62;75.24;97158.56;5076050;28;20009;-72
2022/07/12 04:20:13;;;;;;;;;;;;;;;14.62;74.96;97155.94;5076103;28;20413;-72
2022/07/12 04:22:39;;;;;;;;;;;;;;;14.65;74.99;97157.31;5075641;28;19998;-73
2022/07/12 04:25:05;;;;;;;;;;;;;;;14.68;75.07;97151.56;5075689;28;19954;-72
2022/07/12 04:27:31;;;;;;;;;;;;;;;14.72;75.14;97153.56;5075666;28;19969;-73
2022/07/12 04:29:57;;;;;;;;;;;;;;;14.77;74.76;97158.16;5075719;28;20024;-73
2022/07/12 04:32:23;;;;;;;;;;;;;;;14.80;74.58;97158.50;5075788;28;19969;-73
2022/07/12 04:34:49;;;;;;;;;;;;;;;14.87;74.39;97163.69;5075580;28;19968;-73
2022/07/12 04:37:15;;;;;;;;;;;;;;;14.91;74.41;97162.19;5075881;28;19956;-72
2022/07/12 04:39:41;;;;;;;;;;;;;;;14.98;74.84;97170.00;5075783;28;20066;-72
2022/07/12 04:42:07;;;;;;;;;;;;;;;15.03;74.00;97159.53;5075182;28;19974;-73
2022/07/12 04:44:33;;;;;;;;;;;;;;;15.08;74.14;97159.69;5075388;28;19952;-72
2022/07/12 04:46:58;;;;;;;;;;;;;;;15.13;73.85;97162.44;5075407;28;20008;-73
2022/07/12 04:49:24;;;;;;;;;;;;;;;15.20;73.31;97164.94;5075171;28;20367;-72
2022/07/12 04:51:50;;;;;;;;;;;;;;;15.29;72.56;97163.59;5074947;28;19992;-73
2022/07/12 04:54:16;;;;;;;;;;;;;;;15.38;72.43;97167.50;5075081;28;20012;-73
2022/07/12 04:56:42;;;;;;;;;;;;;;;15.50;72.09;97161.41;5075170;28;20005;-73
2022/07/12 04:59:08;;;;;;;;;;;;;;;15.61;71.69;97160.59;5074989;28;19997;-73
2022/07/12 05:01:34;;;;;;;;;;;;;;;15.72;71.72;97159.78;5075042;28;20069;-72
2022/07/12 05:04:00;;;;;;;;;;;;;;;15.86;71.78;97162.97;5075021;28;19967;-72
2022/07/12 05:06:26;;;;;;;;;;;;;;;16.00;70.88;97161.69;5074764;28;19955;-73
2022/07/12 05:08:51;;;;;;;;;;;;;;;16.18;70.58;97154.59;5075167;28;20053;-73
2022/07/12 05:11:18;;;;;;;;;;;;;;;16.37;70.25;97163.16;5074593;28;20436;-73
2022/07/12 05:13:43;;;;;;;;;;;;;;;16.58;69.78;97157.16;5074831;28;19968;-72
2022/07/12 05:16:09;;;;;;;;;;;;;;;16.81;69.21;97164.19;5074960;28;20424;-73
2022/07/12 05:18:35;;;;;;;;;;;;;;;17.04;68.21;97168.53;5074843;28;19991;-73
2022/07/12 05:21:01;;;;;;;;;;;;;;;17.23;67.30;97152.41;5073548;28;20008;-73
2022/07/12 05:23:27;;;;;;;;;;;;;;;17.34;67.14;97151.50;5074610;28;19971;-73
2022/07/12 05:25:53;;;;;;;;;;;;;;;17.43;66.77;97151.91;5074643;28;19964;-73
2022/07/12 05:28:19;;;;;;;;;;;;;;;17.54;66.74;97153.63;5074625;28;20013;-73
2022/07/12 05:30:45;;;;;;;;;;;;;;;17.71;66.09;97153.59;5074256;28;20029;-73
2022/07/12 05:33:12;;;;;;;;;;;;;;;17.89;65.93;97152.53;5073311;28;20059;-73
2022/07/12 05:35:38;;;;;;;;;;;;;;;18.10;65.51;97145.59;5073891;28;19966;-73
2022/07/12 05:38:04;;;;;;;;;;;;;;;18.31;64.96;97149.28;5074532;28;19970;-73
2022/07/12 05:40:30;;;;;;;;;;;;;;;18.51;64.87;97151.31;5074336;28;20411;-73
2022/07/12 05:42:55;;;;;;;;;;;;;;;18.77;64.39;97146.22;5074445;28;19978;-73
2022/07/12 05:45:24;;;;;;;;;;;;;;;19.00;63.77;97147.75;5073893;28;19995;-73
2022/07/12 05:47:50;;;;;;;;;;;;;;;19.26;62.84;97140.78;5074197;28;19959;-73
2022/07/12 05:50:16;;;;;;;;;;;;;;;19.47;61.88;97139.84;5074130;28;19967;-73
2022/07/12 05:55:26;;;;;;;;;;;;;;;19.61;61.53;97155.34;5062140;28;19957;-73
2022/07/12 05:57:52;;;;;;;;;;;;;;;19.85;61.05;97150.44;5073865;28;19994;-73
2022/07/12 06:00:18;;;;;;;;;;;;;;;20.01;59.57;97133.47;5074140;28;19971;-74
2022/07/12 06:02:43;;;;;;;;;;;;;;;20.13;60.09;97138.53;5073867;28;19969;-73
2022/07/12 06:05:09;;;;;;;;;;;;;;;20.30;59.40;97137.50;5074049;28;19958;-73
2022/07/12 06:07:35;;;;;;;;;;;;;;;20.30;59.18;97143.63;5073811;28;19958;-73
2022/07/12 06:10:01;;;;;;;;;;;;;;;20.43;59.94;97145.81;5074452;28;20416;-72
2022/07/12 06:12:27;;;;;;;;;;;;;;;20.43;58.67;97139.66;5074040;28;19956;-72
2022/07/12 06:14:53;;;;;;;;;;;;;;;20.39;58.87;97147.41;5073879;28;20041;-73
2022/07/12 06:17:22;;;;;;;;;;;;;;;20.52;59.35;97153.28;5073613;28;19958;-72
2022/07/12 06:19:48;;;;;;;;;;;;;;;20.66;58.51;97136.53;5074297;28;20409;-73
2022/07/12 06:22:14;;;;;;;;;;;;;;;20.84;59.35;97147.75;5073529;28;19976;-72
2022/07/12 06:24:39;;;;;;;;;;;;;;;21.06;59.23;97147.44;5073781;28;20424;-73
2022/07/12 06:27:05;;;;;;;;;;;;;;;21.31;58.44;97148.50;5073721;28;19996;-72
2022/07/12 06:29:31;;;;;;;;;;;;;;;21.56;57.56;97131.66;5073170;28;20013;-73
2022/07/12 06:31:57;;;;;;;;;;;;;;;21.78;56.44;97117.97;5073268;28;20053;-73
2022/07/12 06:34:23;;;;;;;;;;;;;;;21.97;55.48;97115.50;5073533;28;19965;-73
2022/07/12 06:36:49;;;;;;;;;;;;;;;22.01;55.59;97122.69;5074010;28;19958;-73
2022/07/12 06:39:14;;;;;;;;;;;;;;;22.10;55.80;97128.25;5072382;28;19986;-73
2022/07/12 06:41:40;;;;;;;;;;;;;;;22.21;55.20;97124.44;5073440;28;19954;-73
2022/07/12 06:44:07;;;;;;;;;;;;;;;22.30;54.65;97114.00;5073509;28;20053;-73
2022/07/12 06:46:33;;;;;;;;;;;;;;;22.36;55.22;97128.91;5073171;28;19959;-73
2022/07/12 06:48:59;;;;;;;;;;;;;;;22.44;55.77;97130.19;5073373;28;19959;-72
2022/07/12 06:51:24;;;;;;;;;;;;;;;22.54;54.92;97129.34;5073527;28;19966;-73
2022/07/12 06:53:50;;;;;;;;;;;;;;;22.61;53.76;97111.91;5072355;28;19970;-72
2022/07/12 06:56:16;;;;;;;;;;;;;;;22.58;53.13;97103.66;5073432;28;19964;-71
2022/07/12 06:58:42;;;;;;;;;;;;;;;22.46;53.85;97120.81;5073208;28;19962;-72
2022/07/12 07:01:08;;;;;;;;;;;;;;;22.47;54.14;97125.09;5073154;28;19975;-72
2022/07/12 07:03:34;;;;;;;;;;;;;;;22.46;55.33;97136.88;5073327;28;20001;-72
2022/07/12 07:05:59;;;;;;;;;;;;;;;22.49;54.57;97130.19;5073122;28;19985;-72
2022/07/12 07:08:25;;;;;;;;;;;;;;;22.41;53.03;97126.22;5073344;28;20025;-72
2022/07/12 07:10:52;;;;;;;;;;;;;;;22.32;52.61;97113.72;5072374;28;20318;-72
2022/07/12 07:13:17;;;;;;;;;;;;;;;22.31;53.68;97138.84;5063788;28;19971;-72
2022/07/12 07:15:43;;;;;;;;;;;;;;;22.44;54.26;97135.53;5073018;28;19963;-72
2022/07/12 07:18:09;;;;;;;;;;;;;;;22.65;53.81;97136.22;5073436;28;19962;-72
2022/07/12 07:20:35;;;;;;;;;;;;;;;22.77;54.10;97150.03;5073064;28;19965;-72
2022/07/12 07:23:01;;;;;;;;;;;;;;;22.84;53.20;97131.78;5073548;28;19982;-73
2022/07/12 07:25:27;;;;;;;;;;;;;;;22.98;53.69;97141.84;5073073;28;20057;-72
2022/07/12 07:27:53;;;;;;;;;;;;;;;23.05;53.04;97142.34;5071719;28;20392;-72
2022/07/12 07:33:03;;;;;;;;;;;;;;;23.42;52.39;97148.97;5073232;28;19973;-72
2022/07/12 07:35:29;;;;;;;;;;;;;;;23.59;49.87;97119.06;5071850;28;19998;-72
2022/07/12 07:37:55;;;;;;;;;;;;;;;23.51;50.04;97145.34;5072955;28;19967;-72
2022/07/12 07:40:21;;;;;;;;;;;;;;;23.37;48.34;97143.63;5073234;28;19959;-72
2022/07/12 07:42:47;;;;;;;;;;;;;;;23.35;51.01;97161.84;5072689;28;20029;-72
2022/07/12 07:45:13;;;;;;;;;;;;;;;23.46;50.04;97152.66;5075770;28;19963;-72
2022/07/12 07:47:42;;;;;;;;;;;;;;;23.57;50.52;97164.06;5076684;28;19967;-72
2022/07/12 07:50:08;;;;;;;;;;;;;;;23.54;47.89;97149.38;5076559;28;19961;-71
2022/07/12 07:52:34;;;;;;;;;;;;;;;23.47;47.49;97151.56;5076324;28;19956;-72
2022/07/12 07:55:00;;;;;;;;;;;;;;;23.31;50.11;97185.72;5076300;28;20380;-72
2022/07/12 07:57:26;;;;;;;;;;;;;;;23.39;49.91;97203.03;5076485;28;20061;-72
2022/07/12 07:59:52;;;;;;;;;;;;;;;23.30;45.54;97187.59;5076203;28;19970;-72
2022/07/12 08:02:18;;;;;;;;;;;;;;;23.30;48.70;97209.00;5076276;28;19981;-72
2022/07/12 08:04:43;;;;;;;;;;;;;;;23.20;47.41;97201.06;5076284;28;19989;-72
2022/07/12 08:07:09;;;;;;;;;;;;;;;23.15;48.60;97209.13;5076126;28;19967;-72
2022/07/12 08:09:35;;;;;;;;;;;;;;;23.18;49.02;97216.63;5076168;28;19964;-72
2022/07/12 08:12:01;;;;;;;;;;;;;;;23.22;49.25;97212.28;5076527;28;20003;-72
2022/07/12 08:14:27;;;;;;;;;;;;;;;23.40;49.18;97207.34;5075923;28;20497;-72
2022/07/12 08:16:53;;;;;;;;;;;;;;;23.54;49.72;97216.31;5076129;28;19968;-72
2022/07/12 08:19:19;;;;;;;;;;;;;;;23.77;48.53;97206.72;5076440;28;20016;-72
2022/07/12 08:21:44;;;;;;;;;;;;;;;23.99;48.28;97200.84;5076346;28;19960;-72
2022/07/12 08:24:10;;;;;;;;;;;;;;;24.14;45.25;97191.03;5075714;28;19976;-72
2022/07/12 08:26:36;;;;;;;;;;;;;;;24.06;45.92;97203.16;5075693;28;19990;-72
2022/07/12 08:29:02;;;;;;;;;;;;;;;24.04;46.46;97206.16;5075988;28;20085;-72
2022/07/12 08:31:28;;;;;;;;;;;;;;;24.00;46.04;97205.13;5075631;28;19970;-72
2022/07/12 08:33:54;;;;;;;;;;;;;;;23.93;47.18;97212.69;5075707;28;19959;-72
2022/07/12 08:36:20;;;;;;;;;;;;;;;24.06;46.69;97206.63;5076015;28;19961;-72
2022/07/12 08:38:46;;;;;;;;;;;;;;;24.19;47.36;97202.50;5075488;28;20408;-72
2022/07/12 08:41:12;;;;;;;;;;;;;;;24.30;47.84;97211.19;5075809;28;20407;-72
2022/07/12 08:43:38;;;;;;;;;;;;;;;24.39;45.06;97188.00;5075150;28;19973;-72
2022/07/12 08:46:05;;;;;;;;;;;;;;;24.51;46.08;97211.75;5075615;28;20011;-72
2022/07/12 08:48:33;;;;;;;;;;;;;;;24.34;44.06;97204.16;5075524;28;19964;-72
2022/07/12 08:51:06;;;;;;;;;;;;;;;24.24;44.58;97205.09;5075305;28;19951;-72
2022/07/12 08:53:32;;;;;;;;;;;;;;;24.15;44.48;97206.00;5075285;28;19970;-72
2022/07/12 08:55:58;;;;;;;;;;;;;;;24.04;45.09;97211.50;5075106;28;19966;-73
2022/07/12 08:58:24;;;;;;;;;;;;;;;23.98;46.29;97218.00;5075137;28;19959;-72
2022/07/12 09:00:50;;;;;;;;;;;;;;;23.74;45.81;97220.63;5075221;28;20477;-72
2022/07/12 09:03:16;;;;;;;;;;;;;;;23.69;44.07;97210.00;5075045;28;20019;-72
2022/07/12 09:05:51;;;;;;;;;;;;;;;23.80;45.47;97227.56;5074944;28;19974;-72
2022/07/12 09:08:17;;;;;;;;;;;;;;;23.93;44.36;97225.31;5075142;28;20417;-72
2022/07/12 09:10:49;;;;;;;;;;;;;;;24.02;43.86;97211.00;5074965;28;19967;-72
2022/07/12 09:13:15;;;;;;;;;;;;;;;24.05;42.61;97213.09;5075094;28;19960;-72
2022/07/12 09:15:41;;;;;;;;;;;;;;;24.15;43.35;97211.38;5074959;28;20023;-72
2022/07/12 09:18:14;;;;;;;;;;;;;;;24.20;45.26;97214.78;5074913;28;19964;-72
2022/07/12 09:20:41;;;;;;;;;;;;;;;24.18;44.00;97211.59;5074544;28;20336;-72
2022/07/12 09:23:09;;;;;;;;;;;;;;;24.16;43.39;97205.72;5074953;28;19981;-72
2022/07/12 09:25:35;;;;;;;;;;;;;;;24.09;44.06;97213.31;5075082;28;19963;-72
2022/07/12 09:28:05;;;;;;;;;;;;;;;24.00;41.79;97207.81;5074589;28;19965;-72
2022/07/12 09:30:32;;;;;;;;;;;;;;;24.12;43.82;97212.75;5074632;28;19990;-72
2022/07/12 09:36:08;;;;;;;;;;;;;;;24.54;44.68;97211.16;5074380;28;19960;-72
2022/07/12 09:38:38;;;;;;;;;;;;;;;24.73;44.28;97213.06;5074594;28;19958;-72
2022/07/12 09:41:04;;;;;;;;;;;;;;;24.95;43.73;97209.75;5073274;28;20511;-72
2022/07/12 09:43:53;;;;;;;;;;;;;;;24.86;41.13;97212.31;5068719;28;19976;-72
2022/07/12 09:46:19;;;;;;;;;;;;;;;24.63;41.14;97217.50;5074741;28;19952;-71
2022/07/12 09:49:11;;;;;;;;;;;;;;;24.55;43.43;97236.91;5058032;28;19971;-72
2022/07/12 09:51:38;;;;;;;;;;;;;;;24.71;42.68;97222.19;5074072;28;19964;-72
2022/07/12 09:54:06;;;;;;;;;;;;;;;24.71;42.55;97219.53;5074638;28;19963;-72
2022/07/12 09:56:34;;;;;;;;;;;;;;;24.83;43.93;97224.44;5074213;28;19959;-72
2022/07/12 09:59:01;;;;;;;;;;;;;;;24.99;43.50;97227.69;5074288;28;19964;-72
2022/07/12 10:01:30;;;;;;;;;;;;;;;25.06;42.65;97238.06;5074185;28;19953;-72
2022/07/12 10:03:59;;;;;;;;;;;;;;;25.08;41.38;97222.44;5074017;28;20345;-72
2022/07/12 10:06:29;;;;;;;;;;;;;;;25.07;41.66;97221.66;5073302;28;19963;-72
2022/07/12 10:08:57;;;;;;;;;;;;;;;25.10;42.50;97231.81;5073951;28;19958;-72
2022/07/12 10:11:24;;;;;;;;;;;;;;;25.24;42.49;97234.56;5074015;28;19952;-72
2022/07/12 10:13:50;;;;;;;;;;;;;;;25.26;41.72;97227.03;5073949;28;19954;-72
2022/07/12 10:16:24;;;;;;;;;;;;;;;25.19;39.70;97215.81;5073787;28;19961;-72
2022/07/12 10:19:09;;;;;;;;;;;;;;;25.04;41.21;97229.50;5073817;28;20418;-71
2022/07/12 10:21:41;;;;;;;;;;;;;;;25.01;40.99;97235.44;5073507;28;19963;-72
2022/07/12 10:24:26;;;;;;;;;;;;;;;25.00;41.81;97237.31;5072546;28;19989;-71
2022/07/12 10:26:52;;;;;;;;;;;;;;;25.04;41.36;97234.88;5073608;28;19954;-72
2022/07/12 10:29:20;;;;;;;;;;;;;;;24.88;41.85;97237.78;5073968;28;19965;-72
2022/07/12 10:31:46;;;;;;;;;;;;;;;24.84;41.31;97231.41;5073536;28;19970;-71
2022/07/12 10:34:14;;;;;;;;;;;;;;;24.78;42.40;97235.25;5073713;28;20473;-72
2022/07/12 10:36:55;;;;;;;;;;;;;;;24.97;42.65;97239.78;5073537;28;19960;-72
2022/07/12 10:39:25;;;;;;;;;;;;;;;25.19;41.17;97221.19;5073800;28;19961;-72
2022/07/12 10:42:05;;;;;;;;;;;;;;;25.31;41.53;97210.81;5073326;28;19951;-72
2022/07/12 10:45:10;;;;;;;;;;;;;;;25.42;41.19;97222.19;5060932;28;19971;-72
2022/07/12 10:47:55;;;;;;;;;;;;;;;25.55;41.63;97212.56;5073314;28;19970;-72
2022/07/12 10:50:39;;;;;;;;;;;;;;;25.64;39.73;97202.72;5073943;28;19972;-72
2022/07/12 10:53:25;;;;;;;;;;;;;;;25.76;41.20;97215.66;5058647;28;19947;-72
2022/07/12 10:56:14;;;;;;;;;;;;;;;25.90;41.27;97221.88;5069386;28;20311;-72
2022/07/12 10:58:53;;;;;;;;;;;;;;;25.91;36.71;97196.59;5069839;28;19959;-72
2022/07/12 11:01:23;;;;;;;;;;;;;;;25.80;40.21;97211.28;5073908;28;19973;-73
2022/07/12 11:03:50;;;;;;;;;;;;;;;25.88;40.11;97212.50;5073322;28;19979;-74
2022/07/12 11:06:18;;;;;;;;;;;;;;;26.01;41.16;97219.78;5073355;28;19966;-74
2022/07/12 11:08:47;;;;;;;;;;;;;;;25.98;39.72;97211.53;5073095;28;19956;-74
2022/07/12 11:11:13;;;;;;;;;;;;;;;26.09;39.80;97215.59;5073471;28;19960;-74
2022/07/12 11:13:39;;;;;;;;;;;;;;;26.19;37.43;97201.97;5071925;28;19958;-74
2022/07/12 11:16:05;;;;;;;;;;;;;;;26.08;39.27;97214.81;5073108;28;19950;-74
2022/07/12 11:18:31;;;;;;;;;;;;;;;26.22;39.08;97204.03;5073791;28;19964;-74
2022/07/12 11:20:58;;;;;;;;;;;;;;;26.36;39.01;97212.09;5077042;28;19958;-73
2022/07/12 11:23:25;;;;;;;;;;;;;;;26.48;38.95;97208.88;5076595;28;19970;-74
2022/07/12 11:25:52;;;;;;;;;;;;;;;26.55;36.56;97189.66;5076936;28;20013;-74
2022/07/12 11:28:19;;;;;;;;;;;;;;;26.41;36.82;97193.16;5076949;28;19965;-74
2022/07/12 11:30:48;;;;;;;;;;;;;;;26.26;37.71;97215.00;5077075;28;19994;-74
2022/07/12 11:33:14;;;;;;;;;;;;;;;26.41;38.77;97211.97;5076687;28;19967;-74
2022/07/12 11:35:43;;;;;;;;;;;;;;;26.57;36.95;97195.56;5062775;28;19991;-74
2022/07/12 11:38:09;;;;;;;;;;;;;;;26.77;38.02;97199.66;5076690;28;19964;-74
2022/07/12 11:40:34;;;;;;;;;;;;;;;26.97;38.25;97195.72;5076741;28;19994;-73
2022/07/12 11:43:01;;;;;;;;;;;;;;;27.03;36.94;97179.13;5076835;28;20436;-74
2022/07/12 11:45:28;;;;;;;;;;;;;;;27.12;36.20;97177.28;5076769;28;19965;-73
2022/07/12 11:47:56;;;;;;;;;;;;;;;27.10;35.61;97190.25;5076499;28;19956;-74
2022/07/12 11:50:22;;;;;;;;;;;;;;;27.14;37.26;97199.31;5076385;28;19954;-74
2022/07/12 11:52:48;;;;;;;;;;;;;;;27.11;34.86;97178.38;5076376;28;20010;-74
2022/07/12 11:55:14;;;;;;;;;;;;;;;27.07;35.44;97182.00;5076499;28;20050;-74
2022/07/12 11:57:40;;;;;;;;;;;;;;;27.24;37.61;97198.28;5076263;28;20366;-74
2022/07/12 12:00:15;;;;;;;;;;;;;;;27.43;36.21;97190.00;5076534;28;20376;-74
2022/07/12 12:02:41;;;;;;;;;;;;;;;27.57;36.95;97192.59;5076338;28;20309;-74
2022/07/12 12:05:07;;;;;;;;;;;;;;;27.66;35.65;97188.06;5076199;28;19988;-74
2022/07/12 12:07:33;;;;;;;;;;;;;;;27.68;35.94;97180.44;5076248;28;19966;-74
2022/07/12 12:10:09;;;;;;;;;;;;;;;27.72;33.87;97175.25;5076481;28;20389;-74
2022/07/12 12:12:35;;;;;;;;;;;;;;;27.82;36.14;97187.63;5075955;28;20106;-74
2022/07/12 12:15:05;;;;;;;;;;;;;;;27.99;37.08;97181.53;5075769;28;19949;-74
2022/07/12 12:17:31;;;;;;;;;;;;;;;28.11;35.16;97173.63;5076177;28;19956;-74
2022/07/12 12:19:59;;;;;;;;;;;;;;;28.18;35.44;97178.56;5075825;28;20302;-74
2022/07/12 12:22:34;;;;;;;;;;;;;;;28.17;34.78;97175.06;5076119;28;19958;-74
2022/07/12 12:25:01;;;;;;;;;;;;;;;28.19;35.37;97180.94;5076094;28;19979;-74
2022/07/12 12:27:26;;;;;;;;;;;;;;;28.26;34.78;97172.38;5076284;28;19955;-74
2022/07/12 12:29:52;;;;;;;;;;;;;;;28.13;32.03;97152.53;5074864;28;19988;-74
2022/07/12 12:32:18;;;;;;;;;;;;;;;28.10;34.08;97166.66;5075775;28;20683;-74
2022/07/12 12:35:03;;;;;;;;;;;;;;;28.08;35.59;97171.56;5075547;28;20007;-74
2022/07/12 12:37:28;;;;;;;;;;;;;;;28.15;34.93;97171.91;5076038;28;19955;-74
2022/07/12 12:39:55;;;;;;;;;;;;;;;28.22;32.77;97150.63;5075969;28;19962;-74
2022/07/12 12:42:24;;;;;;;;;;;;;;;28.26;34.32;97165.06;5075536;28;19959;-74
2022/07/12 12:44:51;;;;;;;;;;;;;;;28.34;35.33;97166.22;5075203;28;19998;-74
2022/07/12 12:47:33;;;;;;;;;;;;;;;28.16;33.13;97156.50;5075657;28;20417;-74
2022/07/12 12:50:03;;;;;;;;;;;;;;;28.17;33.77;97155.41;5074945;28;20404;-74
2022/07/12 12:52:29;;;;;;;;;;;;;;;28.17;32.87;97144.63;5075380;28;19962;-74
2022/07/12 12:54:56;;;;;;;;;;;;;;;28.03;32.72;97145.53;5075081;28;20561;-74
2022/07/12 12:57:24;;;;;;;;;;;;;;;27.69;31.19;97148.91;5075467;28;20415;-74
2022/07/12 12:59:49;;;;;;;;;;;;;;;27.31;31.66;97144.78;5075068;28;19988;-74